Terminal Aerodrome Forecast
Issued by NWS

Home | Current Version | Previous Version | Text Only | Print | Product List | Glossary On
Versions: 1 2 3 4 5 6 7 8 9 10 11 12 13 14 15 16 17 18 19 20 21 22 23 24 25 26 27 28 29
000
FTUS43 KMKX 032322
TAFUES
TAF
KUES 032322Z 0400/0424 24011G20KT P6SM BKN100
     FM040100 24009KT P6SM VCSH BKN110
     FM040230 24008KT P6SM -SHRA VCTS SCT035 BKN070CB
      TEMPO 0403/0406 5SM SHRA BKN035
     FM040600 28006KT P6SM SHRA OVC035
     FM040800 33009KT P6SM BKN015
     FM041600 35014G22KT P6SM BKN040=

USA.gov is the U.S. government's official web portal to all federal, state and local government web resources and services.